Time;durP1;ratioP1;P1;durP2;ratioP2;P2;SDS_P1;SDS_P2;PMS_P1;PMS_P2;Temp;Humidity;BMP_temperature;BMP_pressure;BME280_temperature;BME280_humidity;BME280_pressure;Samples;Min_cycle;Max_cycle;Signal;HPM_P1;HPM_P2
2020/12/10 00:00:20;;;;;;;82.03;38.00;;;1.10;99.90;;;;;;5033828;28;20193;-74
2020/12/10 00:02:45;;;;;;;83.30;41.30;;;1.20;99.90;;;;;;5033818;28;20172;-73
2020/12/10 00:05:11;;;;;;;96.30;46.37;;;1.10;99.90;;;;;;5033835;28;20164;-74
2020/12/10 00:07:38;;;;;;;92.10;44.03;;;1.10;99.90;;;;;;5033505;28;20212;-73
2020/12/10 00:10:09;;;;;;;90.60;41.70;;;1.10;99.90;;;;;;5033339;28;20445;-73
2020/12/10 00:12:42;;;;;;;94.80;41.80;;;1.10;99.90;;;;;;5033650;28;20402;-74
2020/12/10 00:15:09;;;;;;;95.67;43.17;;;1.10;99.90;;;;;;5033493;28;20805;-74
2020/12/10 00:17:34;;;;;;;99.07;43.50;;;1.10;99.90;;;;;;5033501;28;20454;-74
2020/12/10 00:20:00;;;;;;;97.60;43.20;;;1.10;99.90;;;;;;5033444;28;20422;-74
2020/12/10 00:22:26;;;;;;;88.43;42.80;;;1.10;99.90;;;;;;5033568;28;20165;-72
2020/12/10 00:24:52;;;;;;;83.60;45.07;;;1.10;99.90;;;;;;5033162;28;20171;-74
2020/12/10 00:27:23;;;;;;;94.17;43.10;;;1.10;99.90;;;;;;5033366;28;20440;-74
2020/12/10 00:29:48;;;;;;;93.00;44.40;;;1.10;99.90;;;;;;5033046;28;20931;-74
2020/12/10 00:32:14;;;;;;;95.63;44.57;;;1.10;99.90;;;;;;5033281;28;20501;-73
2020/12/10 00:34:44;;;;;;;104.33;46.00;;;1.00;99.90;;;;;;5033287;28;20208;-74
2020/12/10 00:37:10;;;;;;;113.43;42.43;;;1.00;99.90;;;;;;5033470;28;20294;-73
2020/12/10 00:39:36;;;;;;;96.93;44.57;;;1.00;99.90;;;;;;5033193;28;20411;-73
2020/12/10 00:42:03;;;;;;;105.40;47.50;;;1.00;99.90;;;;;;5033165;28;20906;-74
2020/12/10 00:44:29;;;;;;;91.57;42.03;;;1.00;99.90;;;;;;5033170;28;20168;-73
2020/12/10 00:46:54;;;;;;;96.37;43.67;;;0.90;99.90;;;;;;5032570;28;20417;-73
2020/12/10 00:49:21;;;;;;;93.63;45.70;;;0.90;99.90;;;;;;5032953;28;20196;-74
2020/12/10 00:51:47;;;;;;;106.23;44.93;;;0.90;99.90;;;;;;5032943;28;20167;-73
2020/12/10 00:54:13;;;;;;;92.47;41.73;;;0.80;99.90;;;;;;5028771;28;20411;-73
2020/12/10 00:56:38;;;;;;;99.80;41.50;;;0.80;99.90;;;;;;5021626;28;20473;-73
2020/12/10 00:59:04;;;;;;;92.73;41.13;;;0.80;99.90;;;;;;5032724;28;20222;-74
2020/12/10 01:01:30;;;;;;;96.10;42.40;;;0.80;99.90;;;;;;5033045;28;20171;-73
2020/12/10 01:03:56;;;;;;;79.40;40.13;;;0.80;99.90;;;;;;5032779;28;20182;-74
2020/12/10 01:06:21;;;;;;;86.80;41.60;;;0.80;99.90;;;;;;5032550;28;20764;-74
2020/12/10 01:08:47;;;;;;;83.93;38.93;;;0.70;99.90;;;;;;5032460;28;20207;-73
2020/12/10 01:11:12;;;;;;;91.83;41.67;;;0.70;99.90;;;;;;5032898;28;20181;-74
2020/12/10 01:13:38;;;;;;;105.73;43.33;;;0.80;99.90;;;;;;5032728;28;20537;-74
2020/12/10 01:16:03;;;;;;;97.23;39.20;;;0.80;99.90;;;;;;5032576;28;20183;-73
2020/12/10 01:18:29;;;;;;;104.67;43.67;;;0.70;99.90;;;;;;5032421;28;20206;-74
2020/12/10 01:20:54;;;;;;;96.20;41.70;;;0.70;99.90;;;;;;5032360;28;20225;-74
2020/12/10 01:23:19;;;;;;;118.40;46.53;;;0.70;99.90;;;;;;5031130;28;20168;-73
2020/12/10 01:25:45;;;;;;;104.50;44.57;;;0.70;99.90;;;;;;5032455;28;20206;-72
2020/12/10 01:28:10;;;;;;;103.23;43.50;;;0.60;99.90;;;;;;5031982;28;20184;-73
2020/12/10 01:30:36;;;;;;;94.03;41.53;;;0.60;99.90;;;;;;5030881;28;20269;-73
2020/12/10 01:33:01;;;;;;;85.53;40.80;;;0.60;99.90;;;;;;5030749;28;20179;-73
2020/12/10 01:35:27;;;;;;;99.87;41.50;;;0.60;99.90;;;;;;5032059;28;20628;-73
2020/12/10 01:37:52;;;;;;;95.63;39.57;;;0.60;99.90;;;;;;5031776;28;20206;-73
2020/12/10 01:40:18;;;;;;;78.77;36.50;;;0.50;99.90;;;;;;5032044;28;20207;-73
2020/12/10 01:42:43;;;;;;;94.97;43.50;;;0.50;99.90;;;;;;5032020;28;20168;-73
2020/12/10 01:45:09;;;;;;;95.93;41.77;;;0.50;99.90;;;;;;5032038;28;20182;-73
2020/12/10 01:47:34;;;;;;;97.40;43.10;;;0.50;99.90;;;;;;5031832;28;20171;-72
2020/12/10 01:50:00;;;;;;;101.13;42.43;;;0.60;99.90;;;;;;5031735;28;20191;-73
2020/12/10 01:52:26;;;;;;;95.83;40.80;;;0.50;99.90;;;;;;5031857;28;20179;-72
2020/12/10 01:54:51;;;;;;;97.37;40.20;;;0.50;99.90;;;;;;5032062;28;20179;-73
2020/12/10 01:57:17;;;;;;;94.30;40.60;;;0.50;99.90;;;;;;5031887;28;20199;-73
2020/12/10 01:59:43;;;;;;;91.80;41.20;;;0.60;99.90;;;;;;5034639;28;20679;-73
2020/12/10 02:02:08;;;;;;;89.33;40.53;;;0.60;99.90;;;;;;5035954;28;20379;-72
2020/12/10 02:04:37;;;;;;;100.97;41.90;;;0.50;99.90;;;;;;5035956;28;20898;-73
2020/12/10 02:07:03;;;;;;;101.70;38.53;;;0.60;99.90;;;;;;5035501;28;20168;-72
2020/12/10 02:09:29;;;;;;;98.87;40.80;;;0.50;99.90;;;;;;5035667;28;20493;-72
2020/12/10 02:11:55;;;;;;;95.87;42.13;;;0.40;99.90;;;;;;5035675;28;20483;-72
2020/12/10 02:14:22;;;;;;;99.53;42.23;;;0.40;99.90;;;;;;5036283;28;20421;-72
2020/12/10 02:16:55;;;;;;;105.03;40.90;;;0.40;99.90;;;;;;5035526;28;20457;-73
2020/12/10 02:19:20;;;;;;;96.47;40.77;;;0.40;99.90;;;;;;5035714;28;20780;-72
2020/12/10 02:21:46;;;;;;;104.77;40.30;;;0.50;99.90;;;;;;5035598;28;20489;-73
2020/12/10 02:24:15;;;;;;;102.83;44.60;;;0.40;99.90;;;;;;5035536;28;20172;-73
2020/12/10 02:26:40;;;;;;;91.20;39.10;;;0.40;99.90;;;;;;5035386;28;20611;-73
2020/12/10 02:29:06;;;;;;;92.83;38.53;;;0.40;99.90;;;;;;5035295;28;20477;-72
2020/12/10 02:31:32;;;;;;;101.73;40.43;;;0.40;99.90;;;;;;5035722;28;20198;-72
2020/12/10 02:33:59;;;;;;;94.73;39.27;;;0.50;99.90;;;;;;5035374;28;20577;-72
2020/12/10 02:36:25;;;;;;;91.87;38.43;;;0.60;99.90;;;;;;5035071;28;20723;-72
2020/12/10 02:38:51;;;;;;;105.90;42.17;;;0.50;99.90;;;;;;5035207;28;20422;-73
2020/12/10 02:41:16;;;;;;;94.80;38.97;;;0.40;99.90;;;;;;5035205;28;20433;-72
2020/12/10 02:43:42;;;;;;;100.63;43.97;;;0.50;99.90;;;;;;5035288;28;20238;-73
2020/12/10 02:46:07;;;;;;;98.83;41.77;;;0.50;99.90;;;;;;5035098;28;20176;-71
2020/12/10 02:48:33;;;;;;;96.03;39.97;;;0.50;99.90;;;;;;5035057;28;20199;-72
2020/12/10 02:51:00;;;;;;;96.33;39.43;;;0.40;99.90;;;;;;5034968;28;20179;-71
2020/12/10 02:53:27;;;;;;;112.80;43.57;;;0.40;99.90;;;;;;5034972;28;20172;-70
2020/12/10 02:55:54;;;;;;;96.83;43.27;;;0.40;99.90;;;;;;5034999;28;20947;-73
2020/12/10 02:58:19;;;;;;;92.67;44.13;;;0.50;99.90;;;;;;5034444;28;20954;-73
2020/12/10 03:00:45;;;;;;;121.67;42.73;;;0.50;99.90;;;;;;5034946;28;20421;-73
2020/12/10 03:03:10;;;;;;;106.13;42.63;;;0.40;99.90;;;;;;5034892;28;20620;-72
2020/12/10 03:05:36;;;;;;;103.27;42.40;;;0.40;99.90;;;;;;5034694;28;20238;-73
2020/12/10 03:08:01;;;;;;;105.23;45.93;;;0.40;99.90;;;;;;5034332;28;20636;-71
2020/12/10 03:10:26;;;;;;;102.23;41.57;;;0.40;99.90;;;;;;5034318;28;20183;-71
2020/12/10 03:12:52;;;;;;;101.57;41.00;;;0.50;99.90;;;;;;5034526;28;20196;-73
2020/12/10 03:15:17;;;;;;;98.97;41.03;;;0.50;99.90;;;;;;5034527;28;20175;-72
2020/12/10 03:17:43;;;;;;;105.50;41.57;;;0.40;99.90;;;;;;5034260;28;20284;-72
2020/12/10 03:20:08;;;;;;;87.23;41.60;;;0.40;99.90;;;;;;5034207;28;20210;-73
2020/12/10 03:22:34;;;;;;;89.70;37.40;;;0.40;99.90;;;;;;5034217;28;20254;-72
2020/12/10 03:24:59;;;;;;;93.47;42.03;;;0.40;99.90;;;;;;5034264;28;20534;-72
2020/12/10 03:27:26;;;;;;;101.90;41.17;;;0.40;99.90;;;;;;5034084;28;20182;-73
2020/12/10 03:29:52;;;;;;;75.70;38.37;;;0.40;99.90;;;;;;5034380;28;20194;-73
2020/12/10 03:32:17;;;;;;;93.53;37.70;;;0.40;99.90;;;;;;5034431;28;20410;-73
2020/12/10 03:34:43;;;;;;;89.40;40.20;;;0.40;99.90;;;;;;5034210;28;20171;-73
2020/12/10 03:37:08;;;;;;;85.27;43.90;;;0.50;99.90;;;;;;5034037;28;20703;-72
2020/12/10 03:39:33;;;;;;;97.97;39.33;;;0.40;99.90;;;;;;5034089;28;20191;-73
2020/12/10 03:42:00;;;;;;;101.10;40.97;;;0.40;99.90;;;;;;5034008;28;20171;-74
2020/12/10 03:44:26;;;;;;;97.10;38.77;;;0.40;99.90;;;;;;5034284;28;20542;-73
2020/12/10 03:46:52;;;;;;;102.53;42.80;;;0.30;99.90;;;;;;5033867;28;20915;-71
2020/12/10 03:49:18;;;;;;;98.80;39.63;;;0.40;99.90;;;;;;5033923;28;20942;-72
2020/12/10 03:51:44;;;;;;;94.70;42.10;;;0.40;99.90;;;;;;5034012;28;20402;-73
2020/12/10 03:54:09;;;;;;;92.40;41.73;;;0.50;99.90;;;;;;5033819;28;20178;-74
2020/12/10 03:56:35;;;;;;;106.87;41.33;;;0.50;99.90;;;;;;5033633;28;20603;-73
2020/12/10 03:59:02;;;;;;;102.53;44.03;;;0.40;99.90;;;;;;5033830;28;20486;-74
2020/12/10 04:01:28;;;;;;;95.10;40.63;;;0.40;99.90;;;;;;5034089;28;20164;-73
2020/12/10 04:03:53;;;;;;;101.07;42.77;;;0.40;99.90;;;;;;5033673;28;20398;-74
2020/12/10 04:06:19;;;;;;;106.53;41.60;;;0.40;99.90;;;;;;5033411;28;20403;-72
2020/12/10 04:08:44;;;;;;;103.50;41.23;;;0.30;99.90;;;;;;5033529;28;20199;-73
2020/12/10 04:11:10;;;;;;;108.67;43.43;;;0.40;99.90;;;;;;5033498;28;20191;-71
2020/12/10 04:13:36;;;;;;;103.07;42.63;;;0.40;99.90;;;;;;5033539;28;20511;-73
2020/12/10 04:16:02;;;;;;;104.60;45.50;;;0.40;99.90;;;;;;5033367;28;20214;-71
2020/12/10 04:18:28;;;;;;;120.67;45.50;;;0.50;99.90;;;;;;5033468;28;20274;-74
2020/12/10 04:20:54;;;;;;;85.63;38.77;;;0.50;99.90;;;;;;5033193;28;20485;-74
2020/12/10 04:23:19;;;;;;;106.30;42.97;;;0.50;99.90;;;;;;5033693;28;20481;-74
2020/12/10 04:25:53;;;;;;;98.17;42.40;;;0.50;99.90;;;;;;5033624;28;20251;-73
2020/12/10 04:28:18;;;;;;;93.67;40.87;;;0.50;99.90;;;;;;5033415;28;20656;-73
2020/12/10 04:30:44;;;;;;;94.90;39.97;;;0.40;99.90;;;;;;5033139;28;20495;-72
2020/12/10 04:33:09;;;;;;;93.40;40.43;;;0.40;99.90;;;;;;5033292;28;20172;-73
2020/12/10 04:35:35;;;;;;;97.87;40.10;;;0.40;99.90;;;;;;5032980;28;20620;-73
2020/12/10 04:38:00;;;;;;;97.53;41.20;;;0.30;99.90;;;;;;5032773;28;20191;-73
2020/12/10 04:40:26;;;;;;;92.17;40.03;;;0.30;99.90;;;;;;5032887;28;20647;-72
2020/12/10 04:42:53;;;;;;;91.27;39.97;;;0.40;99.90;;;;;;5033030;28;20213;-73
2020/12/10 04:45:19;;;;;;;77.77;38.57;;;0.40;99.90;;;;;;5033033;28;20632;-73
2020/12/10 04:47:44;;;;;;;101.67;36.97;;;0.50;99.90;;;;;;5032694;28;20402;-73
2020/12/10 04:50:20;;;;;;;81.10;38.23;;;0.40;99.90;;;;;;5032635;28;20675;-73
2020/12/10 04:52:46;;;;;;;112.50;41.93;;;0.40;99.90;;;;;;5032826;28;20168;-72
2020/12/10 04:55:12;;;;;;;85.20;37.07;;;0.30;99.90;;;;;;5033227;28;20430;-72
2020/12/10 04:57:39;;;;;;;94.60;39.53;;;0.30;99.90;;;;;;5032472;28;20535;-72
2020/12/10 05:00:06;;;;;;;99.77;47.63;;;0.40;99.90;;;;;;5032483;28;20190;-73
2020/12/10 05:02:31;;;;;;;91.20;38.40;;;0.30;99.90;;;;;;5032601;28;20867;-72
2020/12/10 05:04:57;;;;;;;96.50;38.83;;;0.30;99.90;;;;;;5032445;28;20414;-73
2020/12/10 05:07:37;;;;;;;96.13;38.83;;;0.30;99.90;;;;;;5032224;28;20167;-72
2020/12/10 05:10:02;;;;;;;96.57;40.33;;;0.20;99.90;;;;;;5032433;28;20231;-72
2020/12/10 05:12:28;;;;;;;67.00;35.50;;;0.20;99.90;;;;;;5032410;28;20446;-72
2020/12/10 05:14:53;;;;;;;87.33;33.27;;;0.20;99.90;;;;;;5032458;28;20164;-73
2020/12/10 05:17:20;;;;;;;74.53;32.63;;;0.20;99.90;;;;;;5032087;28;20195;-72
2020/12/10 05:19:54;;;;;;;96.10;37.07;;;0.10;99.90;;;;;;5032143;28;20187;-72
2020/12/10 05:22:20;;;;;;;93.03;34.37;;;0.10;99.90;;;;;;5032605;28;20792;-74
2020/12/10 05:24:45;;;;;;;78.40;36.00;;;0.10;99.90;;;;;;5032951;28;20485;-73
2020/12/10 05:27:22;;;;;;;90.97;37.00;;;0.10;99.90;;;;;;5032610;28;20171;-73
2020/12/10 05:29:49;;;;;;;79.40;34.30;;;0.10;99.90;;;;;;5032105;28;20195;-73
2020/12/10 05:32:26;;;;;;;80.73;36.40;;;0.10;99.90;;;;;;5031985;28;20422;-73
2020/12/10 05:34:52;;;;;;;84.43;37.10;;;0.00;99.90;;;;;;5032001;28;20416;-72
2020/12/10 05:37:27;;;;;;;88.40;34.37;;;0.00;99.90;;;;;;5031917;28;20946;-72
2020/12/10 05:39:58;;;;;;;94.20;39.53;;;0.00;99.90;;;;;;5032199;28;20674;-73
2020/12/10 05:42:25;;;;;;;79.77;34.80;;;0.00;99.90;;;;;;5032029;28;20406;-73
2020/12/10 05:44:51;;;;;;;82.77;36.30;;;-0.10;99.90;;;;;;5031805;28;20406;-73
2020/12/10 05:47:16;;;;;;;75.07;38.17;;;0.00;99.90;;;;;;5031756;28;20875;-73
2020/12/10 05:49:41;;;;;;;93.67;39.37;;;0.00;99.90;;;;;;5031816;28;20198;-72
2020/12/10 05:52:07;;;;;;;86.43;37.97;;;0.10;99.90;;;;;;5031916;28;20172;-72
2020/12/10 05:54:35;;;;;;;94.53;38.20;;;0.10;99.90;;;;;;5031858;28;20174;-73
2020/12/10 05:57:03;;;;;;;93.63;38.03;;;0.10;99.90;;;;;;5031709;28;20986;-73
2020/12/10 05:59:30;;;;;;;90.67;34.93;;;0.10;99.90;;;;;;5031566;28;21127;-73
2020/12/10 06:02:01;;;;;;;103.93;39.93;;;0.10;99.90;;;;;;5031948;28;20492;-72
2020/12/10 06:04:28;;;;;;;88.43;38.97;;;0.10;99.90;;;;;;5031768;28;20504;-73
2020/12/10 06:06:57;;;;;;;93.87;34.00;;;0.10;99.90;;;;;;5031827;28;20771;-73
2020/12/10 06:09:24;;;;;;;115.53;39.53;;;0.10;99.90;;;;;;5032246;28;20455;-72
2020/12/10 06:11:49;;;;;;;94.63;35.40;;;0.00;99.90;;;;;;5032642;28;20806;-74
2020/12/10 06:14:15;;;;;;;89.30;36.60;;;0.00;99.90;;;;;;5032139;28;20410;-73
2020/12/10 06:16:41;;;;;;;91.63;35.30;;;0.10;99.90;;;;;;5032113;28;20199;-74
2020/12/10 06:19:10;;;;;;;92.40;38.13;;;0.20;99.90;;;;;;5033377;28;20266;-74
2020/12/10 06:21:45;;;;;;;96.07;35.47;;;0.20;99.90;;;;;;5033231;28;20412;-74
2020/12/10 06:24:26;;;;;;;90.67;37.13;;;0.10;99.90;;;;;;5033331;28;20893;-73
2020/12/10 06:26:52;;;;;;;93.50;36.63;;;0.10;99.90;;;;;;5032063;28;20897;-73
2020/12/10 06:29:18;;;;;;;83.37;37.93;;;0.10;99.90;;;;;;5031603;28;20430;-73
2020/12/10 06:32:04;;;;;;;78.00;31.90;;;0.00;99.90;;;;;;5031526;28;20453;-71
2020/12/10 06:34:55;;;;;;;76.63;34.97;;;0.10;99.90;;;;;;5031508;28;20942;-72
2020/12/10 06:37:23;;;;;;;86.67;36.30;;;0.10;99.90;;;;;;5030865;28;20560;-72
2020/12/10 06:39:56;;;;;;;83.70;35.97;;;0.10;99.90;;;;;;5031258;28;20432;-72
2020/12/10 06:42:22;;;;;;;91.80;34.40;;;0.10;99.90;;;;;;5031855;28;20760;-74
2020/12/10 06:44:48;;;;;;;78.97;34.57;;;0.10;99.90;;;;;;5032923;28;20413;-74
2020/12/10 06:47:14;;;;;;;83.17;34.77;;;0.10;99.90;;;;;;5035961;28;20928;-73
2020/12/10 06:49:39;;;;;;;89.63;36.47;;;0.00;99.90;;;;;;5036238;28;20214;-73
2020/12/10 06:52:18;;;;;;;90.97;37.50;;;0.10;99.90;;;;;;5036306;28;20285;-73
2020/12/10 06:55:12;;;;;;;74.03;31.93;;;0.10;99.90;;;;;;5035420;28;20175;-72
2020/12/10 06:58:12;;;;;;;89.30;37.03;;;0.20;99.90;;;;;;5034953;28;20454;-73
2020/12/10 07:00:42;;;;;;;88.47;37.67;;;0.20;99.90;;;;;;5034785;28;20413;-73
2020/12/10 07:03:19;;;;;;;81.60;35.50;;;0.10;99.90;;;;;;5034863;28;20468;-73
2020/12/10 07:05:44;;;;;;;90.20;36.87;;;0.10;99.90;;;;;;5034731;28;20886;-73
2020/12/10 07:08:11;;;;;;;102.17;38.30;;;0.20;99.90;;;;;;5034724;28;20426;-73
2020/12/10 07:10:44;;;;;;;86.63;36.87;;;0.20;99.90;;;;;;5035562;28;20175;-75
2020/12/10 07:13:12;;;;;;;85.70;36.27;;;0.20;99.90;;;;;;5035254;28;20402;-74
2020/12/10 07:15:38;;;;;;;95.90;38.50;;;0.20;99.90;;;;;;5035531;28;20467;-75
2020/12/10 07:18:04;;;;;;;91.40;36.23;;;0.10;99.90;;;;;;5034852;28;20458;-74
2020/12/10 07:20:32;;;;;;;101.13;38.97;;;0.10;99.90;;;;;;5035118;28;20714;-73
2020/12/10 07:22:57;;;;;;;83.00;38.47;;;0.10;99.90;;;;;;5035233;28;20428;-74
2020/12/10 07:25:23;;;;;;;94.17;34.87;;;0.20;99.90;;;;;;5035208;28;20402;-74
2020/12/10 07:27:49;;;;;;;99.33;36.17;;;0.20;99.90;;;;;;5034635;28;20174;-73
2020/12/10 07:30:16;;;;;;;103.60;39.70;;;0.10;99.90;;;;;;5034578;28;20270;-71
2020/12/10 07:32:43;;;;;;;100.90;40.27;;;0.10;99.90;;;;;;5034126;28;20195;-71
2020/12/10 07:35:09;;;;;;;100.50;38.47;;;0.00;99.90;;;;;;5032998;28;20792;-72
2020/12/10 07:37:36;;;;;;;84.10;33.60;;;0.00;99.90;;;;;;5033895;28;20855;-73
2020/12/10 07:40:18;;;;;;;90.13;39.23;;;0.10;99.90;;;;;;5034036;28;20422;-73
2020/12/10 07:42:44;;;;;;;98.23;37.20;;;0.00;99.90;;;;;;5034118;28;20846;-72
2020/12/10 07:45:18;;;;;;;114.63;33.43;;;0.00;99.90;;;;;;5033991;28;20493;-72
2020/12/10 07:47:54;;;;;;;92.83;36.47;;;0.00;99.90;;;;;;5034452;28;20167;-74
2020/12/10 07:50:23;;;;;;;93.10;35.53;;;0.00;99.90;;;;;;5033945;28;20408;-73
2020/12/10 07:52:50;;;;;;;101.07;36.97;;;0.10;99.90;;;;;;5034043;28;20936;-73
2020/12/10 07:55:20;;;;;;;74.70;34.33;;;0.10;99.90;;;;;;5033625;28;20437;-73
2020/12/10 07:57:51;;;;;;;108.10;37.20;;;0.20;99.90;;;;;;5032793;28;20623;-73
2020/12/10 08:00:22;;;;;;;91.50;37.13;;;0.20;99.90;;;;;;5033801;28;20728;-72
2020/12/10 08:03:04;;;;;;;82.57;34.63;;;0.20;99.90;;;;;;5033847;28;20940;-73
2020/12/10 08:05:31;;;;;;;84.67;36.13;;;0.20;99.90;;;;;;5033751;28;20462;-73
2020/12/10 08:07:57;;;;;;;87.40;36.97;;;0.20;99.90;;;;;;5033602;28;20407;-73
2020/12/10 08:10:28;;;;;;;92.10;35.23;;;0.20;99.90;;;;;;5032660;28;20422;-74
2020/12/10 08:13:11;;;;;;;91.77;38.13;;;0.20;99.90;;;;;;5033894;28;20441;-73
2020/12/10 08:15:39;;;;;;;109.53;39.97;;;0.20;99.90;;;;;;5033663;28;20422;-71
2020/12/10 08:18:10;;;;;;;92.10;36.50;;;0.20;99.90;;;;;;5032807;28;20450;-74
2020/12/10 08:20:40;;;;;;;84.00;36.80;;;0.20;99.90;;;;;;5033647;28;20423;-73
2020/12/10 08:23:05;;;;;;;96.97;37.40;;;0.20;99.90;;;;;;5033441;28;20398;-73
2020/12/10 08:25:31;;;;;;;96.43;37.23;;;0.10;99.90;;;;;;5033106;28;20410;-73
2020/12/10 08:27:56;;;;;;;92.87;34.37;;;0.10;99.90;;;;;;5033669;28;20249;-75
2020/12/10 08:30:23;;;;;;;100.63;37.40;;;0.10;99.90;;;;;;5032458;28;20190;-74
2020/12/10 08:33:02;;;;;;;94.27;36.27;;;0.20;99.90;;;;;;5032640;28;20590;-74
2020/12/10 08:35:38;;;;;;;101.10;35.97;;;0.10;99.90;;;;;;5014273;28;20923;-79
2020/12/10 08:38:04;;;;;;;88.67;33.50;;;0.20;99.90;;;;;;5014119;28;20881;-73
2020/12/10 08:40:29;;;;;;;90.40;34.83;;;0.20;99.90;;;;;;5013988;28;20525;-74
2020/12/10 08:42:55;;;;;;;100.87;38.90;;;0.10;99.90;;;;;;5013135;28;20535;-73
2020/12/10 08:45:34;;;;;;;84.13;35.63;;;0.20;99.90;;;;;;5013296;28;20199;-73
2020/12/10 08:48:04;;;;;;;87.10;36.90;;;0.20;99.90;;;;;;5013455;28;20184;-73
2020/12/10 08:50:30;;;;;;;89.60;37.93;;;0.20;99.90;;;;;;5019437;28;20415;-72
2020/12/10 08:52:59;;;;;;;108.20;41.50;;;0.20;99.90;;;;;;5032890;28;20410;-73
2020/12/10 08:55:29;;;;;;;94.43;36.37;;;0.20;99.90;;;;;;5033088;28;20464;-72
2020/12/10 08:57:56;;;;;;;91.80;39.87;;;0.20;99.90;;;;;;5032433;28;20877;-73
2020/12/10 09:00:22;;;;;;;106.10;37.57;;;0.20;99.90;;;;;;5032096;28;20441;-73
2020/12/10 09:02:47;;;;;;;109.03;40.03;;;0.30;99.90;;;;;;5032091;28;20468;-73
2020/12/10 09:05:16;;;;;;;88.13;36.23;;;0.30;99.90;;;;;;5032441;28;20990;-73
2020/12/10 09:07:41;;;;;;;102.83;37.10;;;0.30;99.90;;;;;;5032047;28;20255;-74
2020/12/10 09:10:07;;;;;;;96.40;36.80;;;0.20;99.90;;;;;;5032355;28;20497;-73
2020/12/10 09:12:33;;;;;;;78.43;33.97;;;0.10;99.90;;;;;;5032582;28;20214;-73
2020/12/10 09:14:58;;;;;;;89.67;33.33;;;0.10;99.90;;;;;;5032693;28;20403;-73
2020/12/10 09:17:24;;;;;;;97.80;34.60;;;0.10;99.90;;;;;;5031345;28;20335;-74
2020/12/10 09:19:49;;;;;;;101.23;39.80;;;0.20;99.90;;;;;;5032650;28;20183;-73
2020/12/10 09:22:15;;;;;;;99.93;38.00;;;0.20;99.90;;;;;;5032502;28;20569;-73
2020/12/10 09:24:40;;;;;;;92.73;36.83;;;0.20;99.90;;;;;;5032315;28;20168;-72
2020/12/10 09:27:08;;;;;;;105.70;40.27;;;0.20;99.90;;;;;;5032012;28;20181;-73
2020/12/10 09:29:35;;;;;;;108.70;41.30;;;0.30;99.90;;;;;;5032461;28;20229;-73
2020/12/10 09:32:01;;;;;;;87.27;36.90;;;0.20;99.90;;;;;;5033026;28;20422;-74
2020/12/10 09:34:26;;;;;;;91.10;33.30;;;0.30;99.90;;;;;;5032715;28;20425;-73
2020/12/10 09:36:52;;;;;;;94.77;35.20;;;0.30;99.90;;;;;;5032205;28;20195;-73
2020/12/10 09:39:17;;;;;;;92.10;34.90;;;0.30;99.90;;;;;;5031958;28;20624;-72
2020/12/10 09:41:43;;;;;;;88.37;41.60;;;0.30;99.90;;;;;;5032014;28;20163;-73
2020/12/10 09:44:09;;;;;;;83.77;32.40;;;0.30;99.90;;;;;;5031939;28;20233;-73
2020/12/10 09:46:35;;;;;;;74.30;30.63;;;0.20;99.90;;;;;;5031735;28;20685;-73
2020/12/10 09:49:00;;;;;;;79.53;33.80;;;0.40;99.90;;;;;;5031788;28;20418;-73
2020/12/10 09:51:30;;;;;;;84.07;32.37;;;0.30;99.90;;;;;;5032050;28;20168;-73
2020/12/10 09:54:11;;;;;;;84.77;34.97;;;0.30;99.90;;;;;;5032077;28;20644;-72
2020/12/10 09:57:04;;;;;;;82.07;35.03;;;0.30;99.90;;;;;;5031672;28;20406;-72
2020/12/10 09:59:32;;;;;;;108.50;36.17;;;0.40;99.90;;;;;;5031726;28;20429;-72
2020/12/10 10:01:58;;;;;;;94.07;36.30;;;0.40;99.90;;;;;;5031957;28;20441;-73
2020/12/10 10:04:23;;;;;;;95.60;37.73;;;0.40;99.90;;;;;;5031983;28;20459;-72
2020/12/10 10:06:49;;;;;;;75.80;33.63;;;0.30;99.90;;;;;;5032564;28;20164;-72
2020/12/10 10:09:15;;;;;;;71.90;35.00;;;0.40;99.90;;;;;;5032854;28;20226;-73
2020/12/10 10:11:41;;;;;;;84.80;36.57;;;0.30;99.90;;;;;;5032864;28;20680;-73
2020/12/10 10:14:06;;;;;;;96.97;36.50;;;0.40;99.90;;;;;;5032483;28;20413;-72
2020/12/10 10:16:32;;;;;;;78.10;32.57;;;0.40;99.90;;;;;;5032306;28;20313;-74
2020/12/10 10:18:58;;;;;;;89.33;33.93;;;0.50;99.90;;;;;;5030462;28;20191;-73
2020/12/10 10:21:27;;;;;;;81.80;33.43;;;0.30;99.90;;;;;;5036161;28;20703;-73
2020/12/10 10:23:53;;;;;;;81.93;33.83;;;0.30;99.90;;;;;;5035495;28;20410;-73
2020/12/10 10:26:18;;;;;;;85.30;33.17;;;0.30;99.90;;;;;;5036911;28;20398;-72
2020/12/10 10:28:46;;;;;;;79.73;36.23;;;0.30;99.90;;;;;;5035756;28;20687;-73
2020/12/10 10:31:12;;;;;;;80.97;32.00;;;0.30;99.90;;;;;;5035484;28;20202;-74
2020/12/10 10:33:37;;;;;;;90.00;32.67;;;0.30;99.90;;;;;;5035754;28;20437;-73
2020/12/10 10:36:03;;;;;;;81.83;29.87;;;0.30;99.90;;;;;;5047526;28;20167;-73
2020/12/10 10:38:29;;;;;;;71.60;31.37;;;0.30;99.90;;;;;;5055488;28;20225;-72
2020/12/10 10:40:55;;;;;;;78.80;34.53;;;0.40;99.90;;;;;;5055009;28;20163;-72
2020/12/10 10:43:21;;;;;;;95.67;34.57;;;0.30;99.90;;;;;;5058785;28;20401;-74
2020/12/10 10:45:46;;;;;;;77.90;32.47;;;0.40;99.90;;;;;;5055709;28;20771;-73
2020/12/10 10:48:12;;;;;;;99.10;35.30;;;0.40;99.90;;;;;;5055665;28;20175;-73
2020/12/10 10:50:37;;;;;;;93.13;37.43;;;0.30;99.90;;;;;;5055076;28;20171;-72
2020/12/10 10:53:03;;;;;;;83.23;32.90;;;0.30;99.90;;;;;;5055676;28;20202;-72
2020/12/10 10:55:28;;;;;;;87.10;32.90;;;0.40;99.90;;;;;;5055203;28;20175;-73
2020/12/10 10:57:54;;;;;;;87.77;32.73;;;0.30;99.90;;;;;;5054944;28;20245;-73
2020/12/10 11:00:19;;;;;;;96.90;35.00;;;0.30;99.90;;;;;;5052494;28;20171;-73
2020/12/10 11:02:45;;;;;;;94.17;34.27;;;0.40;99.90;;;;;;5034616;28;20233;-74
2020/12/10 11:05:11;;;;;;;80.50;34.27;;;0.40;99.90;;;;;;5035021;28;20810;-74
2020/12/10 11:07:37;;;;;;;90.23;36.10;;;0.30;99.90;;;;;;5035044;28;20255;-74
2020/12/10 11:10:03;;;;;;;92.07;35.03;;;0.40;99.90;;;;;;5035914;28;20883;-74
2020/12/10 11:12:29;;;;;;;74.93;30.47;;;0.40;99.90;;;;;;5035388;28;20505;-74
2020/12/10 11:14:54;;;;;;;88.33;33.70;;;0.40;99.90;;;;;;5035101;28;20472;-74
2020/12/10 11:17:20;;;;;;;74.03;32.80;;;0.40;99.90;;;;;;5035611;28;20631;-78
2020/12/10 11:19:45;;;;;;;86.90;34.40;;;0.40;99.90;;;;;;5035778;28;20275;-72
2020/12/10 11:22:11;;;;;;;81.10;31.67;;;0.50;99.90;;;;;;5034838;28;20512;-76
2020/12/10 11:24:37;;;;;;;79.23;34.47;;;0.40;99.90;;;;;;5034993;28;20364;-74
2020/12/10 11:27:02;;;;;;;76.23;34.80;;;0.40;99.90;;;;;;5035758;28;20854;-75
2020/12/10 11:29:28;;;;;;;72.33;30.37;;;0.40;99.90;;;;;;5035200;28;20258;-79
2020/12/10 11:31:54;;;;;;;87.47;31.37;;;0.40;99.90;;;;;;5034626;28;20179;-74
2020/12/10 11:34:20;;;;;;;74.57;30.40;;;0.40;99.90;;;;;;5034629;28;20259;-74
2020/12/10 11:36:46;;;;;;;86.20;31.17;;;0.40;99.90;;;;;;5034152;28;20917;-75
2020/12/10 11:39:12;;;;;;;83.67;30.30;;;0.40;99.90;;;;;;5033166;28;20462;-72
2020/12/10 11:41:38;;;;;;;79.17;29.27;;;0.30;99.90;;;;;;5034282;28;20902;-74
2020/12/10 11:44:04;;;;;;;81.93;32.80;;;0.30;99.90;;;;;;5033076;28;20413;-74
2020/12/10 11:46:29;;;;;;;84.77;31.40;;;0.30;99.90;;;;;;5034140;28;20170;-74
2020/12/10 11:48:55;;;;;;;68.23;31.07;;;0.20;99.90;;;;;;5033960;28;20413;-73
2020/12/10 11:51:20;;;;;;;81.77;29.77;;;0.30;99.90;;;;;;5033946;28;20179;-74
2020/12/10 11:53:48;;;;;;;69.83;31.50;;;0.30;99.90;;;;;;5033808;28;20175;-74
2020/12/10 11:56:14;;;;;;;73.10;30.43;;;0.30;99.90;;;;;;5033801;28;20175;-74
2020/12/10 11:58:40;;;;;;;61.33;29.43;;;0.30;99.90;;;;;;5033834;28;20461;-74
2020/12/10 12:01:05;;;;;;;65.17;28.60;;;0.20;99.90;;;;;;5033856;28;20468;-75
2020/12/10 12:03:31;;;;;;;71.63;29.23;;;0.20;99.90;;;;;;5033915;28;20468;-74
2020/12/10 12:05:56;;;;;;;65.93;28.10;;;0.20;99.90;;;;;;5034029;28;20604;-74
2020/12/10 12:08:25;;;;;;;73.43;27.47;;;0.20;99.90;;;;;;5033256;28;20233;-74
2020/12/10 12:10:52;;;;;;;82.37;27.87;;;0.20;99.90;;;;;;5033595;28;20618;-74
2020/12/10 12:13:17;;;;;;;58.63;26.13;;;0.20;99.90;;;;;;5033716;28;20536;-74
2020/12/10 12:15:42;;;;;;;68.93;27.63;;;0.20;99.90;;;;;;5032919;28;20419;-73
2020/12/10 12:18:08;;;;;;;88.07;28.90;;;0.20;99.90;;;;;;5033577;28;20218;-77
2020/12/10 12:20:33;;;;;;;63.13;30.07;;;0.20;99.90;;;;;;5035780;28;20180;-77
2020/12/10 12:22:59;;;;;;;72.10;28.60;;;0.20;99.90;;;;;;5030893;28;20171;-78
2020/12/10 12:25:24;;;;;;;58.33;28.47;;;0.10;99.90;;;;;;5018413;28;20181;-73
2020/12/10 12:27:50;;;;;;;73.37;30.90;;;0.20;99.90;;;;;;5028494;28;20636;-76
2020/12/10 12:30:16;;;;;;;69.07;26.73;;;0.20;99.90;;;;;;5033381;28;20567;-76
2020/12/10 12:32:41;;;;;;;81.97;28.83;;;0.20;99.90;;;;;;5033357;28;20410;-73
2020/12/10 12:35:06;;;;;;;68.43;28.97;;;0.20;99.90;;;;;;5035366;28;20711;-73